Time;durP1;ratioP1;P1;durP2;ratioP2;P2;SDS_P1;SDS_P2;PMS_P1;PMS_P2;Temp;Humidity;BMP_temperature;BMP_pressure;BME280_temperature;BME280_humidity;BME280_pressure;Samples;Min_cycle;Max_cycle;Signal;HPM_P1;HPM_P2
2022/06/12 00:01:11;;;;;;;3.40;2.70;;;16.70;75.80;;;;;;6137560;22;95877;-47
2022/06/12 00:03:44;;;;;;;4.35;3.15;;;16.70;75.70;;;;;;6118927;22;95841;-46
2022/06/12 00:06:18;;;;;;;7.90;6.30;;;16.70;75.70;;;;;;6144658;22;95548;-47
2022/06/12 00:08:51;;;;;;;11.30;8.10;;;16.70;75.60;;;;;;6144549;22;95817;-47
2022/06/12 00:11:33;;;;;;;10.95;9.82;;;16.70;75.70;;;;;;6143613;22;95918;-49
2022/06/12 00:14:06;;;;;;;15.52;12.52;;;16.70;72.80;;;;;;6144083;22;95792;-47
2022/06/12 00:16:41;;;;;;;18.83;15.85;;;16.80;75.70;;;;;;6140650;22;95431;-47
2022/06/12 00:19:13;;;;;;;23.80;21.33;;;16.70;75.70;;;;;;6143471;22;95999;-47
2022/06/12 00:21:43;;;;;;;;;;;16.80;75.80;;;;;;6142904;22;96021;-48
2022/06/12 00:24:18;;;;;;;38.10;31.90;;;16.80;75.80;;;;;;6145884;22;95727;-47
2022/06/12 00:26:52;;;;;;;39.00;33.63;;;16.80;75.90;;;;;;6143103;22;95483;-49
2022/06/12 00:29:33;;;;;;;43.70;38.95;;;16.80;75.90;;;;;;6142558;22;96547;-48
2022/06/12 00:32:12;;;;;;;39.20;35.03;;;16.80;75.90;;;;;;6137556;22;95705;-47
2022/06/12 00:34:50;;;;;;;39.65;35.72;;;16.80;75.90;;;;;;6116188;22;95668;-46
2022/06/12 00:37:24;;;;;;;41.13;36.70;;;16.90;76.00;;;;;;6116807;22;95721;-47
2022/06/12 00:39:56;;;;;;;44.08;35.58;;;16.90;76.00;;;;;;6142959;22;95872;-47
2022/06/12 00:42:35;;;;;;;38.95;34.85;;;16.90;75.90;;;;;;6142637;22;95402;-52
2022/06/12 00:45:46;;;;;;;41.30;36.70;;;16.90;76.00;;;;;;6116451;22;95872;-47
2022/06/12 00:48:30;;;;;;;36.25;32.42;;;16.90;76.00;;;;;;6142850;22;95805;-51
2022/06/12 00:51:16;;;;;;;35.85;32.05;;;16.90;76.00;;;;;;6143576;22;96705;-47
2022/06/12 00:53:51;;;;;;;34.40;30.65;;;16.90;76.00;;;;;;6142874;22;95594;-46
2022/06/12 00:56:32;;;;;;;33.28;29.77;;;16.90;76.00;;;;;;6115909;22;95920;-48
2022/06/12 00:59:18;;;;;;;31.02;27.75;;;16.90;74.10;;;;;;6143456;22;95701;-48
2022/06/12 01:01:52;;;;;;;33.35;29.80;;;16.90;76.60;;;;;;6134348;22;98586;-51
2022/06/12 01:07:19;;;;;;;29.08;25.98;;;16.90;72.40;;;;;;6128381;22;95089;-48
2022/06/12 01:09:55;;;;;;;27.48;24.27;;;17.00;76.00;;;;;;6111500;23;95828;-49
2022/06/12 01:12:32;;;;;;;24.48;21.95;;;17.00;75.90;;;;;;6111388;23;96268;-44
2022/06/12 01:15:18;;;;;;;27.15;23.38;;;17.00;75.90;;;;;;6111700;23;95817;-45
2022/06/12 01:17:50;;;;;;;24.67;21.90;;;17.00;75.90;;;;;;6110936;23;95644;-44
2022/06/12 01:20:27;;;;;;;23.13;20.00;;;17.00;75.80;;;;;;6111980;23;95834;-40
2022/06/12 01:23:33;;;;;;;22.85;20.52;;;17.00;75.80;;;;;;6111549;23;96015;-40
2022/06/12 01:26:39;;;;;;;21.33;17.98;;;17.00;75.80;;;;;;6111894;23;95520;-38
2022/06/12 01:29:12;;;;;;;20.40;18.30;;;17.00;75.80;;;;;;6111853;23;95604;-39
2022/06/12 01:32:15;;;;;;;22.40;17.70;;;17.00;75.80;;;;;;6105708;23;95864;-38
2022/06/12 01:34:50;;;;;;;18.80;16.40;;;17.00;75.80;;;;;;6112620;23;96439;-38
2022/06/12 01:37:49;;;;;;;17.77;15.88;;;17.00;75.80;;;;;;6112933;23;95779;-38
2022/06/12 01:40:38;;;;;;;18.52;16.40;;;17.00;75.80;;;;;;6113486;23;95138;-39
2022/06/12 01:43:22;;;;;;;17.88;16.00;;;17.00;75.80;;;;;;6114308;23;95642;-38
2022/06/12 01:46:14;;;;;;;20.00;15.30;;;17.00;75.90;;;;;;6107206;23;96408;-38
2022/06/12 01:49:05;;;;;;;16.35;14.40;;;17.00;75.90;;;;;;6115044;23;95627;-39
2022/06/12 01:51:53;;;;;;;14.30;12.88;;;17.10;75.90;;;;;;6115488;23;96418;-39
2022/06/12 01:54:45;;;;;;;14.27;12.77;;;17.00;75.70;;;;;;6114463;23;95796;-38
2022/06/12 01:57:25;;;;;;;13.45;11.77;;;17.10;75.60;;;;;;6114622;23;95928;-38
2022/06/12 02:00:04;;;;;;;14.02;12.35;;;17.10;75.50;;;;;;6114174;23;95268;-39
2022/06/12 02:02:47;;;;;;;16.25;12.05;;;17.10;75.40;;;;;;6112390;23;95841;-39
2022/06/12 02:05:29;;;;;;;12.43;11.02;;;17.10;75.30;;;;;;6114662;23;96011;-38
2022/06/12 02:08:21;;;;;;;11.82;9.90;;;17.20;75.40;;;;;;6136929;22;95975;-39
2022/06/12 02:13:10;;;;;;;10.85;9.20;;;17.20;75.30;;;;;;6142102;22;96342;-38
2022/06/12 02:13:56;;;;;;;12.20;9.52;;;17.20;75.20;;;;;;6144023;22;95608;-39
2022/06/12 02:16:33;;;;;;;14.45;10.15;;;17.20;75.20;;;;;;6138557;22;97715;-38
2022/06/12 02:19:18;;;;;;;10.18;9.02;;;17.20;75.10;;;;;;6143235;22;96550;-38
2022/06/12 02:22:04;;;;;;;9.18;8.23;;;17.20;75.10;;;;;;6144192;22;95524;-39
2022/06/12 02:24:49;;;;;;;9.40;8.15;;;17.20;72.40;;;;;;6144321;22;95990;-39
2022/06/12 02:27:31;;;;;;;9.93;8.35;;;17.30;75.30;;;;;;6144310;22;95494;-39
2022/06/12 02:30:25;;;;;;;8.82;7.90;;;17.20;75.30;;;;;;6143771;22;95625;-38
2022/06/12 02:33:15;;;;;;;8.57;7.43;;;17.20;75.40;;;;;;6141518;22;102283;-38
2022/06/12 02:36:08;;;;;;;8.63;7.55;;;17.30;72.50;;;;;;6144078;22;95693;-38
2022/06/12 02:38:52;;;;;;;8.65;6.75;;;17.40;75.90;;;;;;6144808;22;95756;-38
2022/06/12 02:41:33;;;;;;;8.07;6.53;;;17.40;75.60;;;;;;6143361;22;96026;-38
2022/06/12 02:44:23;;;;;;;7.50;6.15;;;17.50;76.00;;;;;;6144112;22;95608;-38
2022/06/12 02:47:08;;;;;;;7.10;6.15;;;17.60;76.30;;;;;;6129131;22;95628;-38
2022/06/12 02:49:43;;;;;;;6.88;5.80;;;17.70;76.20;;;;;;6146023;22;95725;-38
2022/06/12 02:52:38;;;;;;;6.00;5.18;;;17.80;76.00;;;;;;6146141;22;95824;-38
2022/06/12 02:55:28;;;;;;;5.50;4.70;;;17.80;75.40;;;;;;6145208;22;96009;-38
2022/06/12 02:58:38;;;;;;;5.72;5.00;;;17.80;75.40;;;;;;6145309;22;95769;-38
2022/06/12 03:01:16;;;;;;;6.05;4.28;;;17.80;75.30;;;;;;6137607;22;95487;-38
2022/06/12 03:04:21;;;;;;;6.95;5.40;;;17.80;75.30;;;;;;6144401;22;96277;-38
2022/06/12 03:06:53;;;;;;;5.38;3.92;;;17.80;75.50;;;;;;6143475;22;95293;-38
2022/06/12 03:09:25;;;;;;;5.40;4.60;;;17.80;75.50;;;;;;6144870;22;95140;-38
2022/06/12 03:11:56;;;;;;;5.38;4.18;;;17.90;75.70;;;;;;6145286;22;95529;-38
2022/06/12 03:14:28;;;;;;;4.95;3.70;;;17.90;75.90;;;;;;6144260;22;95974;-38
2022/06/12 03:17:00;;;;;;;6.05;4.13;;;17.90;76.10;;;;;;6135737;22;95458;-38
2022/06/12 03:19:42;;;;;;;6.38;4.13;;;18.00;76.40;;;;;;6144302;22;95677;-38
2022/06/12 03:22:41;;;;;;;3.65;3.22;;;18.10;76.70;;;;;;6144319;22;95742;-38
2022/06/12 03:25:25;;;;;;;5.32;4.07;;;18.20;76.50;;;;;;6143090;22;96453;-38
2022/06/12 03:28:00;;;;;;;4.00;3.40;;;18.30;76.30;;;;;;6143752;22;95531;-38
2022/06/12 03:30:48;;;;;;;4.43;3.42;;;18.30;76.00;;;;;;6137471;22;95387;-38
2022/06/12 03:33:33;;;;;;;3.92;3.22;;;18.40;76.00;;;;;;6143248;22;95574;-38
2022/06/12 03:36:30;;;;;;;5.28;3.55;;;18.40;75.80;;;;;;6143565;22;97512;-38
2022/06/12 03:39:14;;;;;;;5.45;3.00;;;18.40;75.40;;;;;;6143480;22;96098;-39
2022/06/12 03:42:23;;;;;;;4.30;2.85;;;18.40;75.00;;;;;;6144029;22;96040;-38
2022/06/12 03:45:04;;;;;;;5.35;2.45;;;18.40;74.50;;;;;;6143948;22;95726;-38
2022/06/12 03:47:53;;;;;;;9.60;3.30;;;18.40;74.80;;;;;;6136090;22;95915;-38
2022/06/12 03:50:37;;;;;;;7.40;3.03;;;18.50;74.70;;;;;;6116828;22;96098;-38
2022/06/12 03:53:33;;;;;;;3.65;2.63;;;18.40;74.90;;;;;;6142478;22;96228;-44
2022/06/12 03:59:21;;;;;;;3.80;2.65;;;18.30;75.00;;;;;;6143402;22;96357;-45
2022/06/12 04:02:01;;;;;;;3.30;2.65;;;18.30;74.60;;;;;;6135524;22;95452;-44
2022/06/12 04:04:38;;;;;;;5.45;3.10;;;18.30;74.90;;;;;;6143567;22;95526;-45
2022/06/12 04:07:14;;;;;;;4.38;2.50;;;18.40;74.70;;;;;;6142506;22;95764;-45
2022/06/12 04:09:51;;;;;;;4.13;2.60;;;18.40;74.20;;;;;;6142175;22;95844;-45
2022/06/12 04:12:25;;;;;;;5.30;2.78;;;18.40;73.90;;;;;;6144577;22;96095;-45
2022/06/12 04:15:09;;;;;;;4.97;2.83;;;18.40;73.50;;;;;;6145496;22;95423;-44
2022/06/12 04:17:41;;;;;;;4.82;2.58;;;18.40;73.00;;;;;;6139328;22;97563;-44
2022/06/12 04:20:23;;;;;;;10.75;2.42;;;18.40;73.10;;;;;;6143974;22;96372;-46
2022/06/12 04:23:07;;;;;;;5.53;2.13;;;18.40;73.20;;;;;;6144477;22;95952;-44
2022/06/12 04:25:46;;;;;;;3.25;1.90;;;18.30;72.90;;;;;;6117957;22;95763;-44
2022/06/12 04:28:44;;;;;;;3.72;2.25;;;18.30;73.20;;;;;;6144526;22;95512;-44
2022/06/12 04:31:21;;;;;;;2.97;2.22;;;18.30;73.10;;;;;;6112663;22;95953;-44
2022/06/12 04:34:05;;;;;;;4.55;1.70;;;18.30;73.20;;;;;;6118725;22;95671;-44
2022/06/12 04:36:36;;;;;;;2.45;1.77;;;18.30;73.20;;;;;;6144649;22;95696;-45
2022/06/12 04:39:10;;;;;;;5.13;2.28;;;18.30;73.10;;;;;;6145303;22;95816;-44
2022/06/12 04:41:43;;;;;;;4.00;1.77;;;18.40;73.00;;;;;;6143843;22;95809;-44
2022/06/12 04:44:15;;;;;;;3.03;2.35;;;18.30;72.80;;;;;;6117787;22;95610;-44
2022/06/12 04:46:49;;;;;;;3.30;2.25;;;18.30;72.70;;;;;;6138191;22;95883;-45
2022/06/12 04:49:25;;;;;;;3.17;2.05;;;18.40;72.80;;;;;;6145616;22;95485;-45
2022/06/12 04:51:58;;;;;;;4.32;1.80;;;18.30;72.60;;;;;;6145006;22;96349;-45
2022/06/12 04:54:31;;;;;;;4.68;2.20;;;18.30;69.10;;;;;;6145031;22;95848;-45
2022/06/12 04:57:06;;;;;;;6.05;1.73;;;18.30;72.60;;;;;;6119620;22;95506;-45
2022/06/12 04:59:37;;;;;;;3.63;1.80;;;18.30;72.50;;;;;;6144631;22;95679;-45
2022/06/12 05:02:11;;;;;;;2.75;1.83;;;18.30;72.50;;;;;;6136784;22;95988;-45
2022/06/12 05:04:45;;;;;;;1.42;1.33;;;18.30;72.50;;;;;;6144226;22;95266;-45
2022/06/12 05:07:19;;;;;;;3.45;2.03;;;18.30;72.40;;;;;;6143676;22;95660;-41
2022/06/12 05:09:50;;;;;;;2.05;1.70;;;18.30;72.40;;;;;;6144676;22;95508;-46
2022/06/12 05:12:21;;;;;;;4.70;2.22;;;18.30;72.10;;;;;;6143505;22;95854;-45
2022/06/12 05:14:54;;;;;;;3.92;1.73;;;18.30;71.90;;;;;;6142825;22;95847;-45
2022/06/12 05:17:26;;;;;;;2.70;2.05;;;18.40;66.90;;;;;;6136684;22;95874;-45
2022/06/12 05:19:56;;;;;;;3.50;2.00;;;18.30;71.60;;;;;;6144231;22;95591;-45
2022/06/12 05:22:28;;;;;;;4.22;1.90;;;18.30;71.60;;;;;;6143177;22;95779;-45
2022/06/12 05:25:00;;;;;;;7.25;2.15;;;18.30;71.50;;;;;;6143170;22;95479;-45
2022/06/12 05:27:32;;;;;;;;;;;18.20;71.50;;;;;;6144474;22;95607;-45
2022/06/12 05:30:06;;;;;;;2.85;1.80;;;18.20;71.50;;;;;;6145867;22;95601;-45
2022/06/12 05:32:38;;;;;;;5.90;2.45;;;18.10;71.40;;;;;;6135968;22;95784;-45
2022/06/12 05:35:10;;;;;;;;;;;18.10;71.60;;;;;;6142427;22;95442;-45
2022/06/12 05:37:42;;;;;;;;;;;18.10;72.10;;;;;;6144414;22;95570;-45
2022/06/12 05:40:27;;;;;;;10.98;3.20;;;18.10;72.30;;;;;;6145310;22;95768;-45
2022/06/12 05:42:58;;;;;;;8.98;3.22;;;18.20;72.40;;;;;;6143218;22;96494;-45
2022/06/12 05:45:32;;;;;;;8.73;3.30;;;18.20;72.50;;;;;;6128670;22;96294;-47
2022/06/12 05:48:10;;;;;;;7.03;2.67;;;18.20;72.80;;;;;;6128390;22;95514;-47
2022/06/12 05:50:55;;;;;;;8.73;3.38;;;18.20;73.20;;;;;;6139775;22;95647;-47
2022/06/12 05:53:29;;;;;;;9.02;3.22;;;18.20;73.40;;;;;;6138121;22;96771;-47
2022/06/12 05:56:02;;;;;;;9.27;3.33;;;18.30;73.60;;;;;;6138506;22;95948;-49
2022/06/12 05:58:36;;;;;;;7.72;3.22;;;18.30;73.40;;;;;;6137631;22;95653;-47
2022/06/12 06:01:10;;;;;;;9.60;2.90;;;18.30;73.20;;;;;;6131117;22;97677;-47
2022/06/12 06:03:42;;;;;;;11.40;3.45;;;18.30;72.90;;;;;;6137731;22;95765;-47
2022/06/12 06:06:30;;;;;;;14.80;3.25;;;18.30;72.80;;;;;;6138051;22;96459;-47
2022/06/12 06:09:07;;;;;;;7.63;3.35;;;18.30;72.80;;;;;;6139203;22;95647;-47
2022/06/12 06:11:42;;;;;;;8.88;3.03;;;18.30;72.80;;;;;;6138849;22;95613;-47
2022/06/12 06:14:14;;;;;;;8.15;3.33;;;18.30;69.60;;;;;;6138131;22;95850;-46
2022/06/12 06:16:47;;;;;;;8.38;2.60;;;18.30;72.80;;;;;;6131917;22;96326;-47
2022/06/12 06:19:19;;;;;;;7.53;2.83;;;18.30;72.70;;;;;;6139680;22;95904;-46
2022/06/12 06:21:49;;;;;;;8.55;3.28;;;18.30;72.60;;;;;;6140148;22;95816;-46
2022/06/12 06:24:20;;;;;;;;;;;18.20;73.20;;;;;;6140205;22;96421;-46
2022/06/12 06:26:51;;;;;;;8.00;2.90;;;18.20;72.90;;;;;;6141395;22;95994;-46
2022/06/12 06:29:22;;;;;;;9.85;2.97;;;18.10;73.10;;;;;;6140725;22;95560;-46
2022/06/12 06:31:54;;;;;;;6.22;2.53;;;18.10;73.30;;;;;;6132984;22;95874;-47
2022/06/12 06:34:25;;;;;;;6.13;3.03;;;18.10;73.50;;;;;;6139152;22;96533;-46
2022/06/12 06:36:58;;;;;;;6.82;2.47;;;18.10;73.40;;;;;;6138544;22;95659;-46
2022/06/12 06:39:28;;;;;;;;;;;18.00;70.20;;;;;;6140194;22;96286;-46
2022/06/12 06:42:00;;;;;;;8.85;2.80;;;18.00;73.30;;;;;;6142032;22;95851;-46
2022/06/12 06:47:21;;;;;;;5.28;2.60;;;18.00;73.30;;;;;;6133861;22;95714;-45
2022/06/12 06:49:53;;;;;;;6.68;2.70;;;18.00;73.30;;;;;;6141924;22;95652;-45
2022/06/12 06:52:23;;;;;;;5.55;2.50;;;17.90;73.40;;;;;;6142371;22;95582;-47
2022/06/12 06:54:55;;;;;;;9.75;2.83;;;17.90;73.40;;;;;;6112705;22;97483;-45
2022/06/12 06:57:27;;;;;;;7.57;2.75;;;17.90;73.40;;;;;;6139214;22;95708;-46
2022/06/12 06:59:58;;;;;;;6.05;2.38;;;17.80;73.30;;;;;;6140586;22;95817;-46
2022/06/12 07:02:31;;;;;;;4.20;1.85;;;17.80;67.60;;;;;;6139675;22;95623;-45
2022/06/12 07:05:03;;;;;;;4.72;2.00;;;17.80;73.60;;;;;;6114565;22;96520;-45
2022/06/12 07:07:36;;;;;;;5.05;2.17;;;17.80;73.80;;;;;;6139331;22;95605;-45
2022/06/12 07:10:11;;;;;;;8.95;2.08;;;17.80;74.00;;;;;;6140233;22;95864;-45
2022/06/12 07:12:44;;;;;;;4.40;2.20;;;17.80;73.80;;;;;;6113987;22;95745;-45
2022/06/12 07:15:14;;;;;;;6.72;2.10;;;17.80;73.70;;;;;;6139668;22;96104;-45
2022/06/12 07:17:45;;;;;;;3.97;2.05;;;17.80;73.70;;;;;;6134387;22;96771;-45
2022/06/12 07:20:19;;;;;;;4.50;2.08;;;17.80;73.70;;;;;;6138960;22;95728;-45
2022/06/12 07:22:50;;;;;;;3.38;2.35;;;17.90;73.70;;;;;;6112175;22;95439;-45
2022/06/12 07:25:24;;;;;;;5.35;2.13;;;17.90;73.70;;;;;;6138733;22;96047;-45
2022/06/12 07:27:55;;;;;;;2.97;2.20;;;17.90;73.70;;;;;;6139189;22;95923;-46
2022/06/12 07:30:29;;;;;;;11.10;2.25;;;17.90;73.70;;;;;;6131899;22;95719;-45
2022/06/12 07:33:00;;;;;;;;;;;17.90;73.80;;;;;;6140734;22;96095;-45
2022/06/12 07:35:32;;;;;;;4.45;2.25;;;17.90;73.70;;;;;;6141126;22;96113;-45
2022/06/12 07:38:04;;;;;;;3.55;2.13;;;17.90;73.70;;;;;;6139468;22;95930;-45
2022/06/12 07:40:38;;;;;;;;;;;17.90;73.60;;;;;;6140374;22;95657;-45
2022/06/12 07:43:11;;;;;;;3.75;2.35;;;17.90;73.70;;;;;;6141821;22;95586;-45
2022/06/12 07:45:45;;;;;;;2.67;2.00;;;17.90;73.80;;;;;;6129102;22;96532;-45
2022/06/12 07:48:24;;;;;;;2.70;2.03;;;17.90;73.80;;;;;;6139850;22;95790;-44
2022/06/12 07:50:57;;;;;;;4.88;2.72;;;17.90;71.00;;;;;;6141077;22;95592;-45
2022/06/12 07:53:28;;;;;;;3.70;2.47;;;17.90;74.00;;;;;;6141063;22;95653;-45
2022/06/12 07:56:01;;;;;;;3.88;1.98;;;17.90;74.00;;;;;;6141098;22;96158;-44
2022/06/12 07:58:32;;;;;;;2.97;1.73;;;17.90;74.00;;;;;;6140303;22;95779;-45
2022/06/12 08:01:06;;;;;;;;;;;17.90;74.10;;;;;;6132773;22;95723;-38
2022/06/12 08:03:38;;;;;;;5.43;2.67;;;17.90;74.30;;;;;;6142492;22;95861;-39
2022/06/12 08:06:14;;;;;;;5.25;2.45;;;17.90;74.70;;;;;;6113457;22;96007;-37
2022/06/12 08:08:45;;;;;;;3.35;2.17;;;18.00;74.60;;;;;;6139011;22;95497;-37
2022/06/12 08:11:18;;;;;;;4.38;2.53;;;18.00;74.50;;;;;;6139327;22;95703;-37
2022/06/12 08:13:50;;;;;;;2.30;2.03;;;18.00;74.40;;;;;;6139307;22;95649;-37
2022/06/12 08:16:23;;;;;;;3.92;2.17;;;18.00;74.30;;;;;;6132760;22;96411;-38
2022/06/12 08:18:54;;;;;;;2.63;2.10;;;18.00;74.20;;;;;;6138352;22;95714;-37
2022/06/12 08:21:27;;;;;;;4.22;2.40;;;18.00;74.20;;;;;;6111740;22;95529;-38
2022/06/12 08:24:01;;;;;;;3.22;2.08;;;18.00;74.10;;;;;;6140456;22;95831;-38
2022/06/12 08:26:34;;;;;;;2.90;2.20;;;18.00;68.40;;;;;;6113195;22;96573;-38
2022/06/12 08:29:09;;;;;;;3.53;2.10;;;18.00;73.80;;;;;;6139000;22;95724;-37
2022/06/12 08:31:51;;;;;;;4.45;2.42;;;18.00;74.00;;;;;;6136030;22;95157;-37
2022/06/12 08:34:38;;;;;;;4.35;2.25;;;18.00;74.00;;;;;;6139925;22;96073;-38
2022/06/12 08:37:17;;;;;;;2.75;1.77;;;18.00;73.80;;;;;;6139072;22;95982;-38
2022/06/12 08:39:49;;;;;;;2.35;1.60;;;18.00;73.90;;;;;;6139066;22;95765;-38
2022/06/12 08:42:41;;;;;;;2.50;2.15;;;18.00;73.80;;;;;;6139370;22;95603;-37
2022/06/12 08:45:19;;;;;;;2.35;2.15;;;18.00;73.70;;;;;;6140008;22;95679;-38
2022/06/12 08:48:01;;;;;;;3.72;2.33;;;18.00;73.70;;;;;;6138985;22;95910;-37
2022/06/12 08:50:36;;;;;;;3.15;2.20;;;18.00;73.80;;;;;;6139582;22;95791;-37
2022/06/12 08:53:42;;;;;;;2.80;2.22;;;18.00;73.80;;;;;;6140171;22;95885;-38
2022/06/12 08:56:17;;;;;;;4.70;2.40;;;18.00;73.90;;;;;;6140673;22;95703;-38
2022/06/12 08:58:59;;;;;;;4.57;2.65;;;18.00;73.70;;;;;;6139363;22;96585;-38
2022/06/12 09:01:30;;;;;;;3.83;2.80;;;18.00;73.70;;;;;;6131596;22;97915;-37
2022/06/12 09:04:05;;;;;;;5.60;3.17;;;17.90;73.80;;;;;;6140722;22;95438;-37
2022/06/12 09:06:57;;;;;;;8.27;3.63;;;18.00;74.00;;;;;;6139866;22;95745;-38
2022/06/12 09:09:41;;;;;;;3.75;2.88;;;18.00;74.00;;;;;;6138936;22;96576;-38
2022/06/12 09:12:26;;;;;;;6.13;3.05;;;18.00;74.10;;;;;;6138812;22;95716;-38
2022/06/12 09:15:17;;;;;;;5.80;3.38;;;18.00;74.20;;;;;;6139167;22;95482;-38
2022/06/12 09:18:10;;;;;;;6.57;3.33;;;18.00;72.50;;;;;;6138467;22;95778;-38
2022/06/12 09:20:57;;;;;;;5.60;3.70;;;18.00;74.30;;;;;;6139064;22;96013;-38
2022/06/12 09:23:34;;;;;;;6.20;3.80;;;18.00;74.20;;;;;;6138621;22;95640;-38
2022/06/12 09:26:32;;;;;;;7.15;3.72;;;18.00;74.10;;;;;;6139345;22;95582;-37
2022/06/12 09:29:13;;;;;;;7.88;4.30;;;18.00;74.00;;;;;;6140077;22;95917;-38
2022/06/12 09:32:02;;;;;;;7.78;4.75;;;18.00;74.10;;;;;;6131240;22;97896;-38
2022/06/12 09:34:54;;;;;;;7.20;4.13;;;18.00;74.10;;;;;;6138148;22;95710;-37
2022/06/12 09:40:46;;;;;;;9.52;5.55;;;18.00;74.00;;;;;;6139060;22;95448;-37
2022/06/12 09:43:24;;;;;;;7.53;4.25;;;18.00;74.00;;;;;;6137628;22;96579;-37
2022/06/12 09:45:56;;;;;;;5.20;3.75;;;18.00;74.00;;;;;;6131199;22;95928;-45
2022/06/12 09:48:56;;;;;;;5.95;4.20;;;17.90;74.00;;;;;;6140149;22;95682;-45
2022/06/12 09:52:01;;;;;;;8.20;4.30;;;18.00;70.60;;;;;;6140204;22;95613;-44
2022/06/12 09:54:47;;;;;;;4.18;2.85;;;17.90;73.90;;;;;;6139464;22;96608;-44
2022/06/12 09:57:28;;;;;;;5.05;3.67;;;17.90;74.00;;;;;;6113700;22;97776;-45
2022/06/12 10:00:16;;;;;;;7.22;4.13;;;17.90;73.90;;;;;;6140016;22;95695;-45
2022/06/12 10:03:03;;;;;;;4.43;3.15;;;17.90;73.90;;;;;;6139434;22;95805;-46
2022/06/12 10:05:57;;;;;;;5.57;2.95;;;17.90;74.00;;;;;;6139795;22;95874;-46
2022/06/12 10:08:34;;;;;;;4.20;3.00;;;17.90;73.80;;;;;;6139748;22;95880;-46
2022/06/12 10:11:11;;;;;;;6.90;3.28;;;17.90;73.90;;;;;;6139666;22;95497;-46
2022/06/12 10:13:55;;;;;;;4.82;2.78;;;17.90;73.90;;;;;;6115308;22;95663;-46
2022/06/12 10:16:52;;;;;;;5.85;3.30;;;17.90;73.90;;;;;;6132676;22;96607;-46
2022/06/12 10:19:57;;;;;;;4.05;3.08;;;17.90;73.80;;;;;;6139852;22;95832;-46
2022/06/12 10:22:37;;;;;;;6.25;2.92;;;17.80;73.80;;;;;;6139535;22;95459;-45
2022/06/12 10:25:16;;;;;;;3.58;2.55;;;17.80;73.80;;;;;;6140514;22;95780;-46
2022/06/12 10:27:54;;;;;;;3.70;2.40;;;17.80;73.90;;;;;;6140616;22;96049;-46
2022/06/12 10:30:47;;;;;;;4.78;3.13;;;17.70;73.90;;;;;;6134965;22;96904;-46
2022/06/12 10:33:22;;;;;;;3.58;2.70;;;17.70;74.00;;;;;;6112653;22;95815;-45
2022/06/12 10:35:56;;;;;;;3.30;2.65;;;17.70;74.00;;;;;;6140297;22;95700;-47
2022/06/12 10:38:30;;;;;;;4.28;2.92;;;17.60;74.10;;;;;;6138919;22;96048;-46
2022/06/12 10:41:19;;;;;;;5.88;3.33;;;17.60;74.10;;;;;;6139430;22;95839;-46
2022/06/12 10:43:54;;;;;;;4.50;2.92;;;17.60;74.10;;;;;;6140050;22;96049;-46
2022/06/12 10:46:32;;;;;;;3.80;2.58;;;17.60;74.10;;;;;;6133342;22;96209;-46
2022/06/12 10:49:16;;;;;;;6.47;3.00;;;17.60;74.10;;;;;;6141536;22;96688;-46
2022/06/12 10:51:47;;;;;;;4.30;2.63;;;17.60;74.10;;;;;;6114329;22;96021;-46
2022/06/12 10:54:28;;;;;;;3.60;2.65;;;17.60;74.00;;;;;;6113275;22;95776;-46
2022/06/12 10:57:12;;;;;;;2.25;2.00;;;17.60;74.10;;;;;;6140871;22;95786;-46
2022/06/12 10:59:42;;;;;;;3.53;2.60;;;17.60;74.20;;;;;;6139830;22;96839;-46
2022/06/12 11:02:39;;;;;;;2.28;1.60;;;17.60;74.20;;;;;;6132646;22;98501;-46
2022/06/12 11:05:52;;;;;;;2.70;1.77;;;17.60;74.00;;;;;;6140350;22;95707;-45
2022/06/12 11:08:46;;;;;;;3.58;1.98;;;17.60;74.00;;;;;;6140003;22;95619;-46
2022/06/12 11:12:09;;;;;;;2.95;1.90;;;17.60;74.00;;;;;;6139052;22;95800;-46
2022/06/12 11:14:50;;;;;;;2.05;1.85;;;17.60;73.90;;;;;;6075748;23;95615;-46
2022/06/12 11:17:38;;;;;;;2.35;1.77;;;17.60;73.80;;;;;;6069148;23;95563;-46
2022/06/12 11:20:40;;;;;;;1.70;1.55;;;17.60;73.90;;;;;;6076487;23;95668;-46
2022/06/12 11:23:53;;;;;;;2.38;1.75;;;17.60;73.80;;;;;;6075950;23;95585;-46
2022/06/12 11:26:47;;;;;;;2.47;1.95;;;17.60;73.70;;;;;;6076023;23;96235;-46
2022/06/12 11:30:02;;;;;;;3.80;1.77;;;17.60;73.70;;;;;;6051714;23;95730;-40
2022/06/12 11:32:57;;;;;;;3.45;2.03;;;17.60;73.60;;;;;;6070920;23;95773;-37
2022/06/12 11:35:38;;;;;;;1.85;1.55;;;17.60;73.50;;;;;;6075865;23;95881;-38
2022/06/12 11:38:59;;;;;;;3.10;1.70;;;17.70;73.60;;;;;;6076524;23;95490;-38
2022/06/12 11:41:38;;;;;;;2.60;1.60;;;17.70;73.60;;;;;;6015486;23;95973;-37
2022/06/12 11:44:24;;;;;;;4.07;1.67;;;17.80;73.50;;;;;;6077046;23;95689;-38
2022/06/12 11:47:19;;;;;;;2.20;1.60;;;17.80;73.50;;;;;;6069217;23;95989;-39
2022/06/12 11:50:17;;;;;;;1.52;1.42;;;17.80;73.40;;;;;;6140968;22;95386;-38
2022/06/12 11:53:14;;;;;;;2.28;1.45;;;17.80;73.40;;;;;;6140336;22;95846;-39
2022/06/12 11:56:06;;;;;;;2.85;1.63;;;17.90;73.50;;;;;;6139021;22;95797;-38
2022/06/12 11:58:49;;;;;;;1.80;1.35;;;17.90;73.40;;;;;;6140092;22;96356;-38
2022/06/12 12:01:46;;;;;;;3.47;1.30;;;17.90;73.40;;;;;;6133124;22;95788;-37
2022/06/12 12:04:43;;;;;;;1.35;1.00;;;18.00;73.50;;;;;;6141906;22;95670;-38
2022/06/12 12:07:42;;;;;;;2.65;1.10;;;18.00;73.40;;;;;;6143166;22;95743;-38
2022/06/12 12:10:22;;;;;;;;;;;18.00;73.20;;;;;;6143963;22;95996;-38
2022/06/12 12:13:07;;;;;;;3.03;1.08;;;18.00;73.00;;;;;;6144210;22;95691;-38
2022/06/12 12:15:51;;;;;;;1.75;1.30;;;18.00;72.80;;;;;;6135750;22;95593;-38
2022/06/12 12:18:37;;;;;;;2.10;1.17;;;18.00;72.70;;;;;;6142759;22;95516;-38
2022/06/12 12:21:15;;;;;;;1.77;1.33;;;18.00;72.60;;;;;;6143186;22;95804;-38
2022/06/12 12:23:51;;;;;;;2.33;1.58;;;18.00;72.50;;;;;;6143160;22;95756;-38
2022/06/12 12:26:35;;;;;;;1.55;1.45;;;18.00;72.40;;;;;;6143639;22;95630;-41
2022/06/12 12:29:15;;;;;;;2.78;1.33;;;18.00;72.60;;;;;;6144922;22;95845;-45
2022/06/12 12:31:49;;;;;;;1.60;1.20;;;18.00;72.80;;;;;;6137365;22;95767;-38
2022/06/12 12:34:24;;;;;;;1.65;1.40;;;18.10;73.10;;;;;;6143383;22;95800;-38
2022/06/12 12:42:49;;;;;;;1.83;1.13;;;18.50;72.70;;;;;;6144052;22;96367;-40
2022/06/12 12:45:44;;;;;;;1.35;1.25;;;18.60;72.50;;;;;;6137249;22;95592;-50
2022/06/12 12:48:17;;;;;;;1.55;1.13;;;18.70;72.30;;;;;;6145657;22;95394;-38
2022/06/12 12:50:51;;;;;;;1.40;1.08;;;18.80;72.20;;;;;;6144994;22;95312;-40
2022/06/12 12:53:35;;;;;;;1.50;1.00;;;18.90;72.00;;;;;;6144211;22;96581;-42
2022/06/12 12:56:19;;;;;;;1.17;0.90;;;19.00;72.00;;;;;;6145189;22;95828;-39
2022/06/12 12:59:09;;;;;;;0.93;0.70;;;19.10;71.80;;;;;;6144214;22;95525;-38
2022/06/12 13:01:46;;;;;;;0.98;0.93;;;19.20;71.80;;;;;;6137285;22;97615;-40
2022/06/12 13:04:34;;;;;;;0.98;0.98;;;19.30;71.60;;;;;;6144326;22;95773;-40
2022/06/12 13:07:29;;;;;;;1.55;1.00;;;19.30;71.40;;;;;;6132240;22;95825;-40
2022/06/12 13:10:03;;;;;;;1.02;0.93;;;19.40;68.80;;;;;;6114141;23;95494;-39
2022/06/12 13:13:11;;;;;;;2.47;0.90;;;19.50;71.30;;;;;;6114435;23;95395;-40
2022/06/12 13:16:16;;;;;;;0.65;0.65;;;19.50;71.20;;;;;;6105197;23;96830;-39
2022/06/12 13:19:17;;;;;;;1.08;0.98;;;19.60;71.10;;;;;;6049347;23;95901;-40
2022/06/12 13:22:05;;;;;;;1.48;1.15;;;19.70;71.00;;;;;;6113894;23;95959;-39
2022/06/12 13:24:48;;;;;;;1.00;0.90;;;19.70;68.30;;;;;;6114110;23;95746;-40
2022/06/12 13:27:29;;;;;;;1.55;1.02;;;19.80;70.80;;;;;;6086231;23;96361;-42
2022/06/12 13:30:17;;;;;;;1.10;1.00;;;19.80;70.80;;;;;;6113672;23;95854;-39
2022/06/12 13:32:48;;;;;;;0.80;0.80;;;19.80;70.80;;;;;;6088146;23;95544;-42
2022/06/12 13:35:45;;;;;;;1.02;0.93;;;19.80;70.70;;;;;;6114994;23;96048;-43
2022/06/12 13:38:26;;;;;;;0.80;0.80;;;19.80;70.70;;;;;;6114254;23;95789;-50
2022/06/12 13:41:05;;;;;;;0.90;0.90;;;19.80;70.60;;;;;;6114165;23;95885;-42
2022/06/12 13:43:40;;;;;;;1.15;1.00;;;19.80;70.00;;;;;;6113790;23;95717;-42
2022/06/12 13:46:29;;;;;;;2.05;1.60;;;19.70;69.10;;;;;;6107039;23;95825;-41
2022/06/12 13:49:02;;;;;;;2.10;1.70;;;19.50;68.00;;;;;;6114948;23;96441;-43
2022/06/12 13:51:52;;;;;;;1.73;1.40;;;19.40;66.90;;;;;;6115178;23;95426;-41
2022/06/12 13:54:27;;;;;;;1.40;1.30;;;19.30;68.70;;;;;;6115232;23;95742;-43
2022/06/12 13:57:36;;;;;;;2.10;1.58;;;19.30;69.40;;;;;;6116143;23;96035;-46
2022/06/12 14:00:22;;;;;;;2.33;2.13;;;19.30;69.60;;;;;;6113784;23;95784;-42
2022/06/12 14:02:55;;;;;;;4.18;2.17;;;19.40;69.60;;;;;;6113482;23;95722;-40
2022/06/12 14:05:36;;;;;;;2.55;1.67;;;19.40;69.40;;;;;;6115213;23;95203;-39
2022/06/12 14:08:12;;;;;;;2.72;1.50;;;19.50;69.80;;;;;;6140246;22;95515;-40
2022/06/12 14:10:49;;;;;;;2.38;2.13;;;19.60;69.70;;;;;;6144262;22;96412;-38
2022/06/12 14:13:46;;;;;;;3.03;1.95;;;19.70;69.60;;;;;;6144251;22;95558;-40
2022/06/12 14:16:23;;;;;;;1.92;1.70;;;19.70;69.50;;;;;;6138263;22;95126;-40